createdAt,value
2019-04-06T00:01:51.469Z,6.49
2019-04-06T00:04:21.879Z,6.48
2019-04-06T00:06:52.067Z,6.50
2019-04-06T00:09:22.275Z,6.52
2019-04-06T00:11:54.189Z,6.51
2019-04-06T00:14:24.469Z,6.54
2019-04-06T00:16:54.744Z,6.57
2019-04-06T00:19:24.942Z,6.58
2019-04-06T00:21:55.391Z,6.58
2019-04-06T00:24:25.900Z,6.58
2019-04-06T00:26:56.349Z,6.55
2019-04-06T00:29:27.557Z,6.54
2019-04-06T00:32:05.424Z,6.53
2019-04-06T00:34:35.946Z,6.53
2019-04-06T00:37:06.190Z,6.53
2019-04-06T00:39:36.531Z,6.50
2019-04-06T00:42:06.898Z,6.53
2019-04-06T00:44:37.091Z,6.58
2019-04-06T00:47:07.351Z,6.62
2019-04-06T00:49:37.784Z,6.64
2019-04-06T00:52:08.065Z,6.64
2019-04-06T00:54:38.255Z,6.63
2019-04-06T00:57:08.627Z,6.64
2019-04-06T00:59:38.765Z,6.64
2019-04-06T01:02:09.567Z,6.69
2019-04-06T01:04:39.674Z,6.69
2019-04-06T01:07:09.836Z,6.67
2019-04-06T01:09:40.073Z,6.65
2019-04-06T01:12:10.295Z,6.64
2019-04-06T01:14:40.657Z,6.61
2019-04-06T01:17:11.228Z,6.56
2019-04-06T01:19:41.782Z,6.51
2019-04-06T01:22:12.095Z,6.46
2019-04-06T01:24:42.518Z,6.43
2019-04-06T01:27:13.260Z,6.41
2019-04-06T01:29:43.517Z,6.39
2019-04-06T01:32:13.869Z,6.37
2019-04-06T01:34:44.930Z,6.37
2019-04-06T01:37:15.201Z,6.39
2019-04-06T01:39:46.841Z,6.40
2019-04-06T01:42:17.457Z,6.40
2019-04-06T01:44:47.963Z,6.36
2019-04-06T01:47:18.253Z,6.34
2019-04-06T01:49:48.745Z,6.34
2019-04-06T01:52:19.092Z,6.33
2019-04-06T01:54:49.920Z,6.35
2019-04-06T01:57:20.806Z,6.37
2019-04-06T01:59:51.208Z,6.31
2019-04-06T02:02:32.974Z,6.29
2019-04-06T02:05:04.484Z,6.29
2019-04-06T02:07:34.926Z,6.28
2019-04-06T02:10:05.349Z,6.29
2019-04-06T02:12:35.813Z,6.33
2019-04-06T02:15:06.484Z,6.36
2019-04-06T02:17:37.011Z,6.36
2019-04-06T02:20:07.507Z,6.37
2019-04-06T02:22:39.084Z,6.36
2019-04-06T02:25:09.214Z,6.36
2019-04-06T02:27:39.755Z,6.37
2019-04-06T02:30:29.546Z,6.38
2019-04-06T02:33:19.362Z,6.40
2019-04-06T02:35:59.350Z,6.41
2019-04-06T02:38:39.463Z,6.42
2019-04-06T02:41:29.713Z,6.41
2019-04-06T02:44:00.113Z,6.37
2019-04-06T02:46:31.336Z,6.35
2019-04-06T02:49:01.857Z,6.32
2019-04-06T02:51:32.142Z,6.32
2019-04-06T02:54:02.998Z,6.29
2019-04-06T02:56:45.547Z,6.28
2019-04-06T02:59:06.842Z,6.28
2019-04-06T03:01:37.362Z,6.26
2019-04-06T03:04:07.918Z,6.24
2019-04-06T03:06:38.284Z,6.21
2019-04-06T03:09:11.464Z,6.21
2019-04-06T03:11:41.200Z,6.21
2019-04-06T03:14:11.576Z,6.22
2019-04-06T03:16:41.779Z,6.24
2019-04-06T03:19:12.138Z,6.25
2019-04-06T03:21:42.615Z,6.27
2019-04-06T03:24:13.367Z,6.26
2019-04-06T03:26:43.704Z,6.27
2019-04-06T03:29:13.803Z,6.28
2019-04-06T03:31:43.901Z,6.30
2019-04-06T03:34:20.030Z,6.35
2019-04-06T03:36:46.731Z,6.38
2019-04-06T03:39:16.963Z,6.39
2019-04-06T03:41:47.318Z,6.41
2019-04-06T03:44:17.825Z,6.40
2019-04-06T03:46:48.325Z,6.43
2019-04-06T03:49:18.598Z,6.43
2019-04-06T03:51:48.971Z,6.43
2019-04-06T03:54:19.714Z,6.42
2019-04-06T03:56:49.942Z,6.42
2019-04-06T03:59:21.368Z,6.39
2019-04-06T04:01:51.661Z,6.37
2019-04-06T04:04:22.241Z,6.35
2019-04-06T04:06:52.553Z,6.35
2019-04-06T04:09:23.812Z,6.33
2019-04-06T04:11:56.319Z,6.32
2019-04-06T04:14:26.769Z,6.29
2019-04-06T04:16:57.210Z,6.28
2019-04-06T04:19:27.520Z,6.27
2019-04-06T04:21:58.024Z,6.28
2019-04-06T04:24:28.908Z,6.29
2019-04-06T04:26:59.067Z,6.28
2019-04-06T04:29:29.299Z,6.29
2019-04-06T04:31:59.581Z,6.28
2019-04-06T04:34:30.079Z,6.28
2019-04-06T04:37:00.568Z,6.29
2019-04-06T04:39:30.821Z,6.32
2019-04-06T04:42:03.614Z,6.34
2019-04-06T04:44:33.702Z,6.36
2019-04-06T04:47:03.942Z,6.37
2019-04-06T04:49:34.815Z,6.35
2019-04-06T04:52:05.709Z,6.33
2019-04-06T04:54:36.059Z,6.36
2019-04-06T04:57:07.018Z,6.37
2019-04-06T04:59:37.454Z,6.41
2019-04-06T05:02:08.164Z,6.39
2019-04-06T05:04:38.753Z,6.41
2019-04-06T05:07:09.968Z,6.40
2019-04-06T05:09:40.309Z,6.42
2019-04-06T05:12:10.790Z,6.46
2019-04-06T05:15:01.197Z,6.45
2019-04-06T05:17:31.679Z,6.49
2019-04-06T05:20:02.150Z,6.52
2019-04-06T05:22:32.906Z,6.56
2019-04-06T05:25:03.545Z,6.64
2019-04-06T05:27:33.879Z,6.71
2019-04-06T05:30:05.870Z,6.79
2019-04-06T05:32:36.305Z,6.82
2019-04-06T05:35:06.800Z,6.84
2019-04-06T05:37:37.482Z,6.86
2019-04-06T05:40:07.892Z,6.86
2019-04-06T05:42:38.294Z,6.89
2019-04-06T05:45:10.176Z,6.91
2019-04-06T05:47:40.530Z,6.94
2019-04-06T05:50:10.789Z,6.98
2019-04-06T05:52:41.446Z,7.03
2019-04-06T05:55:11.972Z,7.08
2019-04-06T05:57:43.201Z,7.11
2019-04-06T06:00:13.796Z,7.18
2019-04-06T06:02:44.459Z,7.23
2019-04-06T06:05:14.767Z,7.29
2019-04-06T06:07:45.303Z,7.33
2019-04-06T06:10:15.956Z,7.36
2019-04-06T06:12:46.726Z,7.38
2019-04-06T06:15:17.682Z,7.45
2019-04-06T06:17:48.178Z,7.51
2019-04-06T06:20:18.775Z,7.56
2019-04-06T06:22:49.280Z,7.65
2019-04-06T06:25:19.975Z,7.75
2019-04-06T06:27:50.539Z,7.84
2019-04-06T06:30:22.205Z,7.82
2019-04-06T06:32:52.732Z,7.86
2019-04-06T06:35:23.406Z,7.92
2019-04-06T06:37:54.045Z,8.00
2019-04-06T06:40:24.663Z,8.04
2019-04-06T06:42:55.310Z,8.11
2019-04-06T06:45:25.847Z,8.14
2019-04-06T06:47:56.564Z,8.16
2019-04-06T06:50:28.107Z,8.16
2019-04-06T06:52:59.001Z,8.13
2019-04-06T06:55:29.941Z,8.14
2019-04-06T06:58:00.451Z,8.20
2019-04-06T07:00:31.177Z,8.32
2019-04-06T07:03:02.069Z,8.42
2019-04-06T07:05:32.418Z,8.41
2019-04-06T07:08:02.860Z,8.46
2019-04-06T07:10:33.530Z,8.61
2019-04-06T07:13:04.714Z,8.77
2019-04-06T07:15:35.175Z,8.93
2019-04-06T07:18:05.498Z,9.05
2019-04-06T07:20:36.163Z,9.17
2019-04-06T07:23:06.454Z,9.22
2019-04-06T07:25:37.007Z,9.31
2019-04-06T07:28:07.481Z,9.47
2019-04-06T07:30:38.045Z,9.54
2019-04-06T07:33:08.399Z,9.63
2019-04-06T07:35:44.309Z,9.78
2019-04-06T07:38:14.810Z,10.05
2019-04-06T07:40:47.966Z,10.31
2019-04-06T07:43:18.715Z,10.59
2019-04-06T07:45:49.066Z,11.02
2019-04-06T07:48:19.803Z,11.43
2019-04-06T07:50:50.744Z,11.74
2019-04-06T07:53:22.207Z,11.70
2019-04-06T07:55:52.989Z,11.41
2019-04-06T07:58:23.497Z,10.98
2019-04-06T08:00:54.296Z,10.63
2019-04-06T08:03:24.745Z,10.35
2019-04-06T08:05:55.802Z,9.99
2019-04-06T08:08:29.347Z,9.47
2019-04-06T08:11:00.169Z,9.08
2019-04-06T08:13:32.414Z,8.82
2019-04-06T08:16:03.383Z,8.65
2019-04-06T08:18:33.869Z,8.63
2019-04-06T08:21:04.892Z,8.80
2019-04-06T08:23:35.486Z,9.10
2019-04-06T08:26:07.265Z,9.44
2019-04-06T08:28:38.173Z,9.80
2019-04-06T08:31:09.267Z,10.15
2019-04-06T08:33:40.369Z,10.48
2019-04-06T08:36:12.254Z,10.71
2019-04-06T08:38:42.840Z,10.82
2019-04-06T08:41:13.421Z,10.94
2019-04-06T08:43:44.358Z,11.07
2019-04-06T08:46:14.950Z,11.08
2019-04-06T08:48:47.133Z,11.18
2019-04-06T08:51:18.330Z,11.26
2019-04-06T08:53:49.202Z,11.27
2019-04-06T08:56:19.855Z,11.26
2019-04-06T08:58:50.267Z,11.16
2019-04-06T09:01:21.261Z,10.86
2019-04-06T09:03:51.959Z,10.63
2019-04-06T09:06:23.304Z,10.51
2019-04-06T09:08:54.366Z,10.46
2019-04-06T09:11:24.983Z,10.45
2019-04-06T09:13:55.493Z,10.55
2019-04-06T09:16:28.533Z,10.60
2019-04-06T09:18:59.479Z,10.61
2019-04-06T09:21:29.996Z,10.60
2019-04-06T09:24:00.806Z,10.48
2019-04-06T09:26:31.759Z,10.54
2019-04-06T09:29:02.369Z,10.66
2019-04-06T09:31:33.591Z,10.74
2019-04-06T09:34:05.742Z,10.71
2019-04-06T09:36:36.532Z,10.73
2019-04-06T09:39:07.373Z,10.76
2019-04-06T09:41:38.211Z,10.80
2019-04-06T09:44:14.389Z,10.94
2019-04-06T09:47:03.389Z,11.13
2019-04-06T09:50:02.614Z,11.37
2019-04-06T09:52:58.905Z,11.56
2019-04-06T09:55:41.216Z,11.59
2019-04-06T09:58:43.760Z,11.58
2019-04-06T10:01:23.558Z,11.73
2019-04-06T10:04:08.915Z,11.95
2019-04-06T10:07:05.348Z,12.12
2019-04-06T10:09:54.087Z,12.25
2019-04-06T10:12:50.290Z,12.10
2019-04-06T10:15:31.372Z,11.89
2019-04-06T10:18:36.659Z,11.76
2019-04-06T10:21:45.145Z,11.77
2019-04-06T10:24:53.251Z,11.96
2019-04-06T10:27:52.438Z,12.40
2019-04-06T10:30:40.301Z,12.85
2019-04-06T10:33:23.424Z,13.12
2019-04-06T10:36:16.715Z,13.32
2019-04-06T10:38:59.557Z,13.47
2019-04-06T10:41:51.528Z,13.55
2019-04-06T10:44:50.701Z,13.26
2019-04-06T10:47:39.319Z,12.76
2019-04-06T10:50:28.734Z,12.08
2019-04-06T10:53:24.923Z,11.56
2019-04-06T10:56:14.691Z,11.27
2019-04-06T10:59:03.309Z,11.08
2019-04-06T11:01:52.863Z,10.96
2019-04-06T11:04:31.350Z,11.03
2019-04-06T11:07:20.477Z,11.19
2019-04-06T11:10:23.220Z,11.40
2019-04-06T11:13:12.585Z,11.61
2019-04-06T11:16:04.967Z,11.82
2019-04-06T11:19:00.869Z,11.88
2019-04-06T11:21:50.053Z,11.75
2019-04-06T11:24:55.751Z,11.76
2019-04-06T11:27:58.140Z,11.90
2019-04-06T11:30:54.396Z,12.27
2019-04-06T11:33:50.651Z,12.52
2019-04-06T11:36:44.076Z,12.53
2019-04-06T11:39:34.006Z,12.52
2019-04-06T11:42:14.361Z,12.43
2019-04-06T11:45:07.698Z,12.38
2019-04-06T11:48:03.571Z,12.28
2019-04-06T11:50:59.685Z,12.22
2019-04-06T11:54:05.634Z,12.31
2019-04-06T11:56:58.921Z,12.22
2019-04-06T11:59:51.954Z,11.88
2019-04-06T12:02:48.905Z,11.53
2019-04-06T12:05:56.787Z,11.26
2019-04-06T12:08:45.242Z,10.98
2019-04-06T12:11:47.497Z,10.70
2019-04-06T12:14:49.589Z,10.51
2019-04-06T12:17:37.689Z,10.31
2019-04-06T12:20:26.178Z,10.15
2019-04-06T12:23:22.358Z,10.05
2019-04-06T12:26:18.999Z,10.04
2019-04-06T12:29:08.894Z,10.01
2019-04-06T12:32:08.060Z,10.00
2019-04-06T12:35:04.224Z,10.03
2019-04-06T12:37:53.692Z,10.09
2019-04-06T12:40:56.356Z,10.24
2019-04-06T12:43:53.233Z,10.47
2019-04-06T12:46:56.440Z,10.72
2019-04-06T12:49:49.374Z,10.95
2019-04-06T12:52:26.293Z,11.01
2019-04-06T12:55:28.914Z,11.08
2019-04-06T12:58:35.880Z,11.27
2019-04-06T13:01:26.213Z,11.37
2019-04-06T13:04:16.320Z,11.49
2019-04-06T13:07:13.000Z,11.67
2019-04-06T13:10:06.515Z,11.85
2019-04-06T13:12:56.818Z,11.88
2019-04-06T13:15:35.458Z,11.81
2019-04-06T13:18:15.121Z,11.74
2019-04-06T13:21:02.281Z,11.57
2019-04-06T13:23:44.178Z,11.32
2019-04-06T13:26:52.002Z,11.03
2019-04-06T13:29:42.121Z,10.70
2019-04-06T13:32:30.026Z,10.47
2019-04-06T13:35:20.654Z,10.36
2019-04-06T13:38:14.026Z,10.35
2019-04-06T13:41:04.319Z,10.44
2019-04-06T13:43:52.738Z,10.59
2019-04-06T13:46:34.392Z,10.80
2019-04-06T13:49:24.524Z,10.89
2019-04-06T13:52:14.597Z,10.97
2019-04-06T13:55:14.852Z,11.15
2019-04-06T13:58:11.151Z,11.93
2019-04-06T14:00:49.377Z,13.92
2019-04-06T14:03:37.909Z,14.59
2019-04-06T14:06:27.079Z,14.37
2019-04-06T14:09:23.953Z,13.88
2019-04-06T14:12:23.383Z,13.33
2019-04-06T14:15:12.053Z,12.75
2019-04-06T14:18:06.883Z,12.29
2019-04-06T14:21:05.025Z,12.12
2019-04-06T14:23:52.242Z,12.00
2019-04-06T14:26:40.858Z,11.82
2019-04-06T14:29:38.327Z,11.75
2019-04-06T14:32:27.291Z,12.58
2019-04-06T14:35:08.375Z,13.09
2019-04-06T14:37:59.073Z,12.59
2019-04-06T14:40:50.505Z,11.93
2019-04-06T14:43:41.171Z,11.42
2019-04-06T14:46:34.421Z,11.06
2019-04-06T14:49:30.817Z,10.71
2019-04-06T14:52:24.163Z,10.47
2019-04-06T14:55:03.602Z,10.30
2019-04-06T14:57:59.581Z,10.12
2019-04-06T15:00:59.800Z,9.98
2019-04-06T15:04:02.442Z,9.80
2019-04-06T15:06:43.666Z,9.56
2019-04-06T15:09:22.997Z,9.37
2019-04-06T15:12:15.972Z,9.21
2019-04-06T15:15:06.264Z,9.04
2019-04-06T15:18:01.476Z,8.89
2019-04-06T15:20:42.803Z,8.81
2019-04-06T15:23:42.249Z,8.73
2019-04-06T15:26:41.155Z,8.67
2019-04-06T15:29:32.097Z,8.56
2019-04-06T15:32:24.590Z,8.43
2019-04-06T15:35:23.445Z,8.33
2019-04-06T15:38:02.000Z,8.20
2019-04-06T15:40:57.830Z,8.12
2019-04-06T15:43:53.453Z,8.06
2019-04-06T15:46:44.159Z,7.98
2019-04-06T15:49:29.113Z,7.88
2019-04-06T15:52:33.309Z,7.75
2019-04-06T15:55:23.172Z,7.69
2019-04-06T15:57:58.140Z,7.61
2019-04-06T16:00:57.412Z,7.58
2019-04-06T16:03:41.312Z,7.56
2019-04-06T16:06:43.057Z,7.55
2019-04-06T16:09:42.384Z,7.57
2019-04-06T16:12:39.012Z,7.56
2019-04-06T16:15:29.678Z,7.54
2019-04-06T16:18:12.398Z,7.52
2019-04-06T16:21:01.568Z,7.49
2019-04-06T16:24:03.060Z,7.43
2019-04-06T16:26:49.459Z,7.34
2019-04-06T16:29:26.995Z,7.24
2019-04-06T16:32:32.825Z,7.14
2019-04-06T16:35:21.230Z,7.03
2019-04-06T16:38:11.272Z,6.96
2019-04-06T16:40:54.521Z,6.85
2019-04-06T16:43:50.527Z,6.70
2019-04-06T16:46:43.614Z,6.56
2019-04-06T16:49:45.378Z,6.42
2019-04-06T16:52:33.833Z,6.29
2019-04-06T16:55:36.304Z,6.14
2019-04-06T16:58:37.960Z,6.04
2019-04-06T17:01:37.688Z,5.94
2019-04-06T17:04:45.151Z,5.83
2019-04-06T17:07:35.178Z,5.75
2019-04-06T17:10:31.352Z,5.68
2019-04-06T17:13:33.453Z,5.61
2019-04-06T17:16:29.024Z,5.56
2019-04-06T17:19:33.956Z,5.58
2019-04-06T17:22:25.427Z,5.55
2019-04-06T17:25:17.273Z,5.52
2019-04-06T17:27:55.975Z,5.57
2019-04-06T17:30:37.179Z,5.61
2019-04-06T17:33:35.008Z,5.65
2019-04-06T17:36:22.421Z,5.73
2019-04-06T17:39:25.251Z,5.82
2019-04-06T17:42:08.702Z,5.88
2019-04-06T17:44:58.815Z,5.96
2019-04-06T17:47:52.408Z,6.01
2019-04-06T17:50:38.783Z,6.09
2019-04-06T17:53:31.830Z,6.13
2019-04-06T17:56:37.631Z,6.17
2019-04-06T17:59:35.164Z,6.21
2019-04-06T18:02:23.580Z,6.24
2019-04-06T18:05:08.306Z,6.22
2019-04-06T18:07:57.079Z,6.16
2019-04-06T18:10:35.595Z,6.11
2019-04-06T18:13:34.761Z,6.05
2019-04-06T18:16:05.506Z,6.01
2019-04-06T18:18:36.475Z,6.00
2019-04-06T18:21:06.892Z,6.05
2019-04-06T18:23:37.176Z,6.04
2019-04-06T18:26:07.421Z,6.08
2019-04-06T18:28:40.188Z,6.09
2019-04-06T18:31:31.318Z,6.08
2019-04-06T18:34:01.784Z,6.08
2019-04-06T18:37:12.503Z,6.08
2019-04-06T18:39:42.850Z,6.06
2019-04-06T18:42:13.572Z,6.06
2019-04-06T18:44:44.363Z,6.06
2019-04-06T18:47:18.939Z,6.06
2019-04-06T18:49:49.972Z,5.99
2019-04-06T18:52:23.543Z,5.91
2019-04-06T18:54:54.645Z,5.84
2019-04-06T18:57:25.387Z,5.80
2019-04-06T18:59:55.953Z,5.74
2019-04-06T19:02:27.064Z,5.69
2019-04-06T19:04:57.474Z,5.60
2019-04-06T19:07:28.368Z,5.50
2019-04-06T19:10:00.360Z,5.41
2019-04-06T19:12:31.440Z,5.29
2019-04-06T19:15:02.926Z,5.22
2019-04-06T19:17:34.112Z,5.13
2019-04-06T19:20:05.805Z,5.05
2019-04-06T19:22:37.668Z,4.96
2019-04-06T19:25:08.443Z,4.87
2019-04-06T19:27:40.673Z,4.81
2019-04-06T19:30:11.597Z,4.80
2019-04-06T19:32:42.664Z,4.90
2019-04-06T19:35:13.324Z,4.93
2019-04-06T19:37:44.333Z,4.90
2019-04-06T19:40:17.776Z,4.87
2019-04-06T19:42:48.201Z,4.82
2019-04-06T19:45:19.562Z,4.78
2019-04-06T19:47:49.791Z,4.76
2019-04-06T19:50:20.991Z,4.75
2019-04-06T19:52:51.718Z,4.74
2019-04-06T19:55:23.027Z,4.73
2019-04-06T19:57:53.434Z,4.71
2019-04-06T20:00:24.588Z,4.69
2019-04-06T20:02:55.376Z,4.63
2019-04-06T20:05:26.345Z,4.65
2019-04-06T20:07:56.815Z,4.67
2019-04-06T20:10:28.511Z,4.62
2019-04-06T20:13:01.880Z,4.61
2019-04-06T20:15:33.540Z,4.53
2019-04-06T20:18:05.417Z,4.47
2019-04-06T20:20:36.623Z,4.40
2019-04-06T20:23:07.298Z,4.40
2019-04-06T20:25:38.428Z,4.44
2019-04-06T20:28:09.572Z,4.51
2019-04-06T20:30:40.730Z,4.57
2019-04-06T20:33:11.988Z,4.63
2019-04-06T20:35:42.699Z,4.69
2019-04-06T20:38:13.913Z,4.72
2019-04-06T20:40:47.349Z,4.72
2019-04-06T20:43:18.533Z,4.67
2019-04-06T20:45:49.039Z,4.62
2019-04-06T20:48:20.539Z,4.61
2019-04-06T20:50:51.250Z,4.59
2019-04-06T20:53:22.118Z,4.53
2019-04-06T20:55:54.198Z,4.51
2019-04-06T20:58:25.059Z,4.49
2019-04-06T21:00:55.773Z,4.47
2019-04-06T21:03:26.569Z,4.39
2019-04-06T21:05:57.128Z,4.31
2019-04-06T21:08:27.513Z,4.18
2019-04-06T21:10:58.046Z,4.12
2019-04-06T21:13:28.786Z,4.09
2019-04-06T21:15:59.812Z,4.07
2019-04-06T21:18:31.014Z,4.03
2019-04-06T21:21:02.081Z,3.97
2019-04-06T21:23:32.989Z,3.92
2019-04-06T21:26:03.726Z,3.87
2019-04-06T21:28:34.310Z,3.80
2019-04-06T21:31:05.078Z,3.81
2019-04-06T21:33:35.649Z,3.78
2019-04-06T21:36:06.968Z,3.79
2019-04-06T21:38:37.704Z,3.82
2019-04-06T21:41:08.615Z,3.90
2019-04-06T21:43:39.376Z,3.91
2019-04-06T21:46:10.471Z,3.91
2019-04-06T21:48:41.345Z,3.93
2019-04-06T21:51:11.705Z,3.92
2019-04-06T21:53:42.724Z,3.89
2019-04-06T21:56:13.211Z,3.84
2019-04-06T21:58:43.401Z,3.80
2019-04-06T22:01:14.861Z,3.77
2019-04-06T22:02:55.026Z,3.81
2019-04-06T22:03:45.465Z,3.76
2019-04-06T22:04:36.268Z,3.75
2019-04-06T22:05:27.250Z,3.75
2019-04-06T22:06:17.599Z,3.73
2019-04-06T22:07:08.750Z,3.74
2019-04-06T22:07:59.668Z,3.73
2019-04-06T22:08:52.201Z,3.72
2019-04-06T22:09:46.776Z,3.73
2019-04-06T22:10:39.540Z,3.73
2019-04-06T22:11:29.985Z,3.74
2019-04-06T22:12:20.663Z,3.76
2019-04-06T22:13:11.587Z,3.77
2019-04-06T22:14:01.876Z,3.76
2019-04-06T22:14:52.162Z,3.76
2019-04-06T22:15:42.646Z,3.76
2019-04-06T22:16:33.658Z,3.75
2019-04-06T22:17:24.427Z,3.75
2019-04-06T22:18:15.150Z,3.76
2019-04-06T22:19:05.796Z,3.76
2019-04-06T22:19:56.583Z,3.77
2019-04-06T22:20:47.071Z,3.75
2019-04-06T22:21:37.408Z,3.76
2019-04-06T22:22:29.050Z,3.77
2019-04-06T22:23:22.651Z,3.76
2019-04-06T22:24:14.871Z,3.79
2019-04-06T22:25:05.914Z,3.80
2019-04-06T22:25:56.879Z,3.81
2019-04-06T22:26:47.194Z,3.82
2019-04-06T22:27:37.435Z,3.83
2019-04-06T22:28:27.962Z,3.83
2019-04-06T22:29:18.529Z,3.83
2019-04-06T22:30:10.239Z,3.84
2019-04-06T22:31:01.798Z,3.84
2019-04-06T22:31:51.785Z,3.83
2019-04-06T22:32:41.947Z,3.85
2019-04-06T22:33:31.985Z,3.84
2019-04-06T22:34:34.014Z,3.85
2019-04-06T22:35:16.061Z,3.85
2019-04-06T22:36:06.660Z,3.85
2019-04-06T22:36:58.235Z,3.87
2019-04-06T22:37:48.805Z,3.88
2019-04-06T22:38:40.088Z,3.89
2019-04-06T22:39:32.667Z,3.90
2019-04-06T22:40:23.435Z,3.92
2019-04-06T22:41:14.028Z,3.93
2019-04-06T22:42:04.826Z,3.94
2019-04-06T22:42:55.403Z,3.94
2019-04-06T22:43:45.774Z,3.93
2019-04-06T22:44:36.068Z,3.94
2019-04-06T22:45:26.742Z,3.92
2019-04-06T22:46:17.096Z,3.93
2019-04-06T22:47:08.071Z,3.94
2019-04-06T22:47:58.749Z,3.92
2019-04-06T22:48:49.530Z,3.91
2019-04-06T22:49:40.498Z,3.90
2019-04-06T22:50:31.449Z,3.90
2019-04-06T22:51:21.919Z,3.88
2019-04-06T22:52:12.894Z,3.87
2019-04-06T22:53:04.013Z,3.86
2019-04-06T22:53:54.612Z,3.84
2019-04-06T22:55:41.618Z,3.87
2019-04-06T22:56:32.650Z,3.82
2019-04-06T22:59:44.780Z,4.13
2019-04-06T23:00:54.528Z,3.93
2019-04-06T23:01:44.926Z,3.86
2019-04-06T23:02:47.845Z,3.81
2019-04-06T23:03:56.346Z,3.80
2019-04-06T23:05:08.700Z,3.77
2019-04-06T23:06:02.045Z,3.76
2019-04-06T23:06:58.673Z,3.76
2019-04-06T23:07:49.716Z,3.77
2019-04-06T23:09:38.527Z,3.85
2019-04-06T23:10:30.462Z,3.83
2019-04-06T23:11:20.828Z,3.85
2019-04-06T23:12:11.007Z,3.86
2019-04-06T23:13:01.711Z,3.87
2019-04-06T23:13:51.647Z,3.88
2019-04-06T23:14:42.084Z,3.91
2019-04-06T23:15:32.614Z,3.93
2019-04-06T23:16:23.075Z,3.95
2019-04-06T23:17:13.408Z,3.97
2019-04-06T23:18:03.617Z,3.99
2019-04-06T23:18:53.785Z,4.01
2019-04-06T23:19:44.238Z,4.02
2019-04-06T23:20:34.623Z,4.04
2019-04-06T23:21:25.050Z,4.07
2019-04-06T23:22:15.842Z,4.09
2019-04-06T23:23:05.743Z,4.10
2019-04-06T23:23:55.719Z,4.12
2019-04-06T23:26:32.920Z,4.21
2019-04-06T23:28:59.624Z,4.28
2019-04-06T23:29:34.755Z,4.24
2019-04-06T23:30:10.437Z,4.27
2019-04-06T23:30:46.566Z,4.31
2019-04-06T23:31:24.389Z,4.34
2019-04-06T23:50:56.129Z,5.56
2019-04-06T23:53:28.175Z,5.47
2019-04-06T23:56:00.111Z,5.40
2019-04-06T23:58:32.549Z,5.33
